Time;durP1;ratioP1;P1;durP2;ratioP2;P2;SDS_P1;SDS_P2;PMS_P1;PMS_P2;Temp;Humidity;BMP_temperature;BMP_pressure;BME280_temperature;BME280_humidity;BME280_pressure;Samples;Min_cycle;Max_cycle;Signal;HPM_P1;HPM_P2
2021/06/20 00:01:27;;;;;;;6.47;3.90;;;;;;;20.08;77.87;99874.97;6347204;28;20048;-59
2021/06/20 00:04:28;;;;;;;9.73;3.80;;;;;;;20.06;77.90;99866.34;6345979;28;20046;-60
2021/06/20 00:07:29;;;;;;;7.23;3.53;;;;;;;20.06;77.83;99864.50;6347021;27;20047;-59
2021/06/20 00:10:32;;;;;;;7.80;3.87;;;;;;;20.06;77.57;99869.81;6345838;28;20044;-59
2021/06/20 00:13:37;;;;;;;6.80;3.58;;;;;;;20.11;78.23;99867.50;6345627;28;20093;-59
2021/06/20 00:16:38;;;;;;;8.13;3.50;;;;;;;20.05;78.09;99872.59;6346831;28;20134;-59
2021/06/20 00:19:39;;;;;;;4.80;3.55;;;;;;;19.98;78.61;99868.94;6345537;28;20043;-59
2021/06/20 00:22:40;;;;;;;8.90;3.97;;;;;;;19.95;79.85;99872.72;6346817;28;20220;-59
2021/06/20 00:25:41;;;;;;;8.43;4.07;;;;;;;19.83;78.76;99868.69;6346727;28;20123;-59
2021/06/20 00:28:42;;;;;;;5.57;3.57;;;;;;;19.86;79.36;99868.41;6328574;28;20411;-59
2021/06/20 00:31:42;;;;;;;5.57;3.87;;;;;;;19.80;80.04;99869.03;6346590;28;20050;-59
2021/06/20 00:34:43;;;;;;;6.67;3.77;;;;;;;19.81;79.79;99873.31;6345396;28;20055;-59
2021/06/20 00:37:45;;;;;;;7.47;3.93;;;;;;;19.74;79.79;99875.78;6346538;28;20039;-59
2021/06/20 00:40:46;;;;;;;4.65;3.70;;;;;;;19.66;81.13;99867.75;6345384;28;20059;-60
2021/06/20 00:43:46;;;;;;;10.07;3.63;;;;;;;19.60;80.81;99863.09;6346602;28;20044;-58
2021/06/20 00:46:47;;;;;;;5.73;3.80;;;;;;;19.47;81.27;99856.41;6345207;28;20116;-59
2021/06/20 00:49:48;;;;;;;7.63;3.97;;;;;;;19.40;80.83;99858.03;6345138;28;20474;-59
2021/06/20 00:52:49;;;;;;;6.33;3.77;;;;;;;19.45;81.98;99846.97;6346032;28;20046;-59
2021/06/20 00:55:50;;;;;;;7.40;3.70;;;;;;;19.47;81.58;99851.09;6344871;28;20104;-59
2021/06/20 00:59:01;;;;;;;7.18;3.88;;;;;;;19.48;81.52;99849.31;6328198;28;20059;-58
2021/06/20 01:02:02;;;;;;;7.75;3.58;;;;;;;19.41;81.13;99848.25;6345057;28;20444;-60
2021/06/20 01:05:09;;;;;;;4.57;3.33;;;;;;;19.54;81.74;99843.41;6344913;28;20490;-60
2021/06/20 01:08:10;;;;;;;5.57;3.83;;;;;;;19.56;81.16;99841.41;6346075;28;20040;-59
2021/06/20 01:11:11;;;;;;;4.45;3.42;;;;;;;19.52;81.55;99832.97;6345988;28;20494;-59
2021/06/20 01:14:13;;;;;;;4.97;3.90;;;;;;;19.54;81.29;99838.09;6344796;28;20043;-60
2021/06/20 01:17:15;;;;;;;7.90;3.88;;;;;;;19.53;80.67;99833.78;6346288;28;20056;-59
2021/06/20 01:20:18;;;;;;;5.90;3.85;;;;;;;19.42;81.18;99840.16;6346045;28;20051;-59
2021/06/20 01:23:19;;;;;;;5.57;3.40;;;;;;;19.42;81.80;99840.16;6345924;28;20075;-59
2021/06/20 01:26:19;;;;;;;5.27;3.20;;;;;;;19.38;82.23;99840.66;6344580;28;20058;-59
2021/06/20 01:29:20;;;;;;;6.33;3.60;;;;;;;19.31;81.11;99845.72;6344796;28;20039;-59
2021/06/20 01:32:21;;;;;;;5.73;4.17;;;;;;;19.21;83.26;99845.81;6327663;28;20049;-59
2021/06/20 01:35:22;;;;;;;6.85;4.18;;;;;;;19.24;83.27;99845.50;6345821;28;20054;-59
2021/06/20 01:38:23;;;;;;;7.30;3.97;;;;;;;19.13;84.38;99849.22;6345821;28;20507;-59
2021/06/20 01:41:25;;;;;;;5.35;3.92;;;;;;;19.11;83.89;99848.56;6345807;28;20538;-59
2021/06/20 01:44:26;;;;;;;6.10;3.53;;;;;;;19.05;83.75;99841.25;6345648;28;20511;-59
2021/06/20 01:47:28;;;;;;;5.43;3.57;;;;;;;19.03;84.04;99843.19;6345673;28;20039;-59
2021/06/20 01:50:30;;;;;;;;;;;;;;;18.98;84.15;99842.81;6346207;28;20047;-59
2021/06/20 01:53:31;;;;;;;4.15;3.72;;;;;;;19.01;84.19;99841.69;6345520;28;19945;-59
2021/06/20 01:56:31;;;;;;;6.38;3.67;;;;;;;18.95;84.13;99843.13;6344393;28;20044;-59
2021/06/20 01:59:32;;;;;;;4.27;3.30;;;;;;;19.00;83.45;99840.84;6345725;28;20042;-59
2021/06/20 02:02:33;;;;;;;5.33;3.80;;;;;;;19.00;84.07;99843.50;6345961;28;20057;-59
2021/06/20 02:05:35;;;;;;;4.27;3.27;;;;;;;18.90;84.69;99845.41;6348912;28;20036;-59
2021/06/20 02:08:36;;;;;;;7.22;3.65;;;;;;;18.85;84.58;99840.56;6349778;28;20108;-59
2021/06/20 02:11:36;;;;;;;7.53;3.75;;;;;;;18.76;84.95;99848.53;6348958;28;20044;-60
2021/06/20 02:14:38;;;;;;;4.68;3.47;;;;;;;18.78;85.07;99841.28;6331485;28;20055;-59
2021/06/20 02:17:40;;;;;;;;;;;;;;;18.77;84.56;99844.94;6332106;28;20039;-59
2021/06/20 02:20:41;;;;;;;4.03;3.50;;;;;;;18.73;85.12;99854.97;6349719;28;19923;-59
2021/06/20 02:23:42;;;;;;;6.97;3.53;;;;;;;18.83;84.68;99842.53;6349698;28;20520;-60
2021/06/20 02:26:42;;;;;;;6.30;3.53;;;;;;;18.84;84.78;99840.72;6349566;28;20097;-60
2021/06/20 02:29:49;;;;;;;7.95;3.58;;;;;;;18.83;84.58;99850.47;6349788;28;20473;-59
2021/06/20 02:32:51;;;;;;;4.55;3.22;;;;;;;18.75;84.43;99855.66;6349209;27;20465;-59
2021/06/20 02:35:52;;;;;;;;;;;;;;;18.84;84.75;99852.13;6349909;28;20039;-59
2021/06/20 02:38:52;;;;;;;3.85;2.95;;;;;;;18.90;84.09;99854.19;6349247;28;19923;-58
2021/06/20 02:41:53;;;;;;;4.28;2.83;;;;;;;18.93;84.51;99858.31;6349089;28;20115;-60
2021/06/20 02:44:55;;;;;;;5.60;3.33;;;;;;;18.87;84.09;99861.56;6349677;28;20418;-64
2021/06/20 02:47:55;;;;;;;3.78;3.30;;;;;;;18.83;83.94;99852.28;6347947;28;20418;-64
2021/06/20 02:50:56;;;;;;;5.68;2.88;;;;;;;18.83;83.53;99849.66;6349288;28;20050;-64
2021/06/20 02:53:57;;;;;;;4.60;3.30;;;;;;;18.72;84.58;99854.16;6348984;28;20122;-64
2021/06/20 02:56:58;;;;;;;4.30;3.28;;;;;;;18.72;84.88;99851.50;6347746;28;20477;-63
2021/06/20 03:00:03;;;;;;;4.97;3.55;;;;;;;18.78;85.12;99857.16;6347794;28;20040;-64
2021/06/20 03:03:05;;;;;;;5.75;3.10;;;;;;;18.74;84.96;99854.00;6347805;28;20493;-60
2021/06/20 03:06:07;;;;;;;5.50;3.13;;;;;;;18.75;84.92;99852.19;6348589;28;20040;-60
2021/06/20 03:09:08;;;;;;;4.80;3.13;;;;;;;18.74;84.78;99861.94;6347190;28;20406;-60
2021/06/20 03:12:12;;;;;;;3.15;2.85;;;;;;;18.80;85.47;99850.78;6348458;28;20393;-60
2021/06/20 03:15:13;;;;;;;5.55;3.28;;;;;;;18.73;84.67;99850.50;6346910;28;20043;-60
2021/06/20 03:18:14;;;;;;;4.22;3.10;;;;;;;18.79;83.68;99854.41;6348412;28;20070;-60
2021/06/20 03:21:17;;;;;;;3.87;3.10;;;;;;;18.82;84.87;99855.91;6348288;27;20440;-60
2021/06/20 03:24:18;;;;;;;4.07;2.97;;;;;;;18.77;84.84;99858.16;6348236;28;20046;-60
2021/06/20 03:27:20;;;;;;;6.28;3.10;;;;;;;18.78;84.29;99860.66;6346826;28;20645;-60
2021/06/20 03:30:21;;;;;;;3.92;3.10;;;;;;;18.76;85.12;99859.97;6348141;28;20043;-60
2021/06/20 03:33:22;;;;;;;3.88;3.10;;;;;;;18.72;84.66;99856.78;6347792;28;20122;-60
2021/06/20 03:36:23;;;;;;;4.40;3.33;;;;;;;18.76;84.83;99865.25;6347925;28;20046;-59
2021/06/20 03:39:24;;;;;;;3.97;2.90;;;;;;;18.79;85.11;99870.25;6347928;28;20048;-60
2021/06/20 03:42:24;;;;;;;3.37;2.80;;;;;;;18.79;84.42;99880.81;6346563;28;20043;-60
2021/06/20 03:45:26;;;;;;;4.00;2.97;;;;;;;18.82;84.90;99888.47;6347634;28;20409;-60
2021/06/20 03:48:26;;;;;;;3.80;2.80;;;;;;;18.80;85.04;99884.28;6347615;27;20122;-60
2021/06/20 03:51:27;;;;;;;6.25;2.80;;;;;;;18.90;83.97;99885.03;6346321;28;20039;-60
2021/06/20 03:54:28;;;;;;;9.70;2.53;;;;;;;18.84;84.68;99891.78;6346195;28;20507;-59
2021/06/20 03:57:29;;;;;;;3.97;2.80;;;;;;;18.90;83.76;99896.47;6328986;28;20048;-60
2021/06/20 04:00:30;;;;;;;6.28;2.60;;;;;;;18.98;84.29;99894.88;6346130;28;20531;-60
2021/06/20 04:03:31;;;;;;;2.97;2.70;;;;;;;19.06;83.89;99877.25;6347398;27;20047;-60
2021/06/20 04:06:33;;;;;;;5.25;2.97;;;;;;;19.13;83.13;99875.69;6347215;28;20035;-60
2021/06/20 04:09:34;;;;;;;5.80;2.90;;;;;;;19.09;83.33;99876.97;6347035;28;20379;-60
2021/06/20 04:12:35;;;;;;;3.57;2.50;;;;;;;19.08;82.84;99867.34;6346671;28;20039;-60
2021/06/20 04:15:36;;;;;;;8.57;2.95;;;;;;;19.07;84.31;99867.53;6346190;28;20051;-60
2021/06/20 04:18:37;;;;;;;4.37;2.90;;;;;;;19.20;83.37;99867.94;6328714;28;20121;-60
2021/06/20 04:21:38;;;;;;;2.78;2.50;;;;;;;19.24;83.19;99871.94;6345917;28;20409;-60
2021/06/20 04:24:38;;;;;;;7.57;2.93;;;;;;;19.27;83.11;99868.16;6345900;28;20047;-60
2021/06/20 04:27:41;;;;;;;2.87;2.40;;;;;;;19.27;82.43;99870.81;6345150;28;20127;-60
2021/06/20 04:30:42;;;;;;;3.38;2.40;;;;;;;19.34;83.14;99863.94;6346751;28;20119;-60
2021/06/20 04:33:43;;;;;;;4.27;2.80;;;;;;;19.44;83.02;99866.47;6345409;28;20455;-60
2021/06/20 04:36:44;;;;;;;6.43;2.90;;;;;;;19.48;82.11;99857.25;6346514;28;20048;-60
2021/06/20 04:39:44;;;;;;;3.30;2.58;;;;;;;19.50;83.45;99861.38;6345329;28;20047;-60
2021/06/20 04:42:54;;;;;;;5.22;2.60;;;;;;;19.60;81.83;99860.44;6346591;28;20409;-60
2021/06/20 04:45:54;;;;;;;6.88;2.60;;;;;;;19.66;81.59;99857.16;6345401;28;20074;-60
2021/06/20 04:49:04;;;;;;;3.87;2.50;;;;;;;19.71;81.50;99855.75;6346326;28;20039;-59
2021/06/20 04:52:06;;;;;;;5.03;2.97;;;;;;;19.72;82.00;99862.69;6346301;28;20050;-60
2021/06/20 04:55:09;;;;;;;6.78;3.13;;;;;;;19.79;81.43;99872.66;6346543;28;20040;-59
2021/06/20 04:58:09;;;;;;;3.92;2.95;;;;;;;19.84;80.73;99865.06;6346197;28;20114;-60
2021/06/20 05:01:10;;;;;;;6.13;2.90;;;;;;;19.90;81.13;99872.38;6328126;28;20539;-59
2021/06/20 05:04:11;;;;;;;4.23;2.50;;;;;;;20.02;80.81;99870.28;6345147;28;20040;-60
2021/06/20 05:07:12;;;;;;;3.40;2.40;;;;;;;20.08;80.89;99867.84;6344893;28;20063;-60
2021/06/20 05:10:13;;;;;;;2.80;2.13;;;;;;;20.22;79.24;99868.19;6344870;28;20408;-60
2021/06/20 05:13:14;;;;;;;4.07;2.20;;;;;;;20.29;78.45;99874.53;6344896;28;20295;-60
2021/06/20 05:16:15;;;;;;;4.40;2.13;;;;;;;20.35;79.75;99868.59;6345903;28;20394;-60
2021/06/20 05:19:16;;;;;;;2.90;2.33;;;;;;;20.44;77.68;99861.47;6344904;28;20079;-64
2021/06/20 05:22:18;;;;;;;6.33;2.20;;;;;;;20.47;79.03;99854.03;6345261;28;20410;-64
2021/06/20 05:25:19;;;;;;;2.70;1.98;;;;;;;20.63;76.93;99861.25;6346385;28;20142;-64
2021/06/20 05:28:20;;;;;;;4.10;2.10;;;;;;;20.73;78.42;99863.72;6346241;28;20036;-64
2021/06/20 05:31:21;;;;;;;3.83;1.83;;;;;;;20.75;76.54;99868.84;6345008;28;20043;-64
2021/06/20 05:34:21;;;;;;;3.73;1.90;;;;;;;20.91;75.60;99869.69;6345014;28;20443;-64
2021/06/20 05:37:22;;;;;;;2.40;1.80;;;;;;;21.02;74.83;99862.41;6346713;28;20409;-64
2021/06/20 05:40:23;;;;;;;2.13;1.80;;;;;;;21.13;74.76;99860.25;6351156;28;20040;-64
2021/06/20 05:43:24;;;;;;;2.80;2.10;;;;;;;21.09;75.12;99855.47;6349876;28;20051;-64
2021/06/20 05:46:25;;;;;;;2.87;2.10;;;;;;;21.27;73.17;99853.44;6350823;28;20374;-64
2021/06/20 05:49:26;;;;;;;1.73;1.60;;;;;;;21.28;73.71;99855.09;6350654;28;20131;-64
2021/06/20 05:52:27;;;;;;;2.70;1.97;;;;;;;21.36;75.81;99862.22;6349502;28;20043;-64
2021/06/20 05:55:28;;;;;;;;;;;;;;;21.47;73.83;99856.59;6351605;28;20039;-66
2021/06/20 05:58:29;;;;;;;3.10;1.65;;;;;;;21.63;73.26;99857.56;6350002;28;19962;-64
2021/06/20 06:01:29;;;;;;;5.83;1.97;;;;;;;21.84;70.75;99857.81;6330244;28;20074;-65
2021/06/20 06:04:30;;;;;;;5.00;1.83;;;;;;;21.91;70.50;99848.16;6333706;28;20040;-65
2021/06/20 06:07:31;;;;;;;2.90;1.87;;;;;;;22.03;71.87;99848.63;6325358;28;20052;-64
2021/06/20 06:10:32;;;;;;;3.30;1.80;;;;;;;22.19;70.40;99838.91;6323860;28;20108;-65
2021/06/20 06:13:33;;;;;;;2.03;1.65;;;;;;;22.26;67.87;99842.56;6323819;28;20040;-66
2021/06/20 06:16:33;;;;;;;3.90;1.77;;;;;;;22.33;68.70;99833.69;6323426;28;20052;-65
2021/06/20 06:19:34;;;;;;;2.00;1.70;;;;;;;22.45;67.14;99834.13;6306662;28;20094;-65
2021/06/20 06:22:35;;;;;;;1.90;1.60;;;;;;;22.56;68.77;99832.06;6323662;28;20047;-66
2021/06/20 06:25:36;;;;;;;4.03;1.38;;;;;;;22.66;64.91;99827.34;6324412;28;20040;-65
2021/06/20 06:28:37;;;;;;;1.90;1.30;;;;;;;22.81;65.54;99824.75;6324184;28;20051;-64
2021/06/20 06:31:41;;;;;;;4.43;1.40;;;;;;;22.80;63.34;99818.59;6322936;28;20044;-65
2021/06/20 06:34:42;;;;;;;3.47;1.48;;;;;;;22.87;65.10;99826.69;6322555;28;20036;-65
2021/06/20 06:37:44;;;;;;;2.93;1.50;;;;;;;22.98;65.18;99826.28;6323644;28;20096;-63
2021/06/20 06:40:45;;;;;;;1.70;1.40;;;;;;;23.03;65.22;99821.25;6336007;28;20035;-63
2021/06/20 06:43:46;;;;;;;1.90;1.50;;;;;;;23.04;61.54;99830.91;6343495;28;20134;-65
2021/06/20 06:46:47;;;;;;;3.08;1.42;;;;;;;23.12;61.85;99836.16;6349262;28;20113;-65
2021/06/20 06:49:48;;;;;;;1.50;1.30;;;;;;;23.23;62.39;99840.19;6347624;28;20474;-65
2021/06/20 06:52:49;;;;;;;3.90;1.40;;;;;;;23.30;62.44;99843.78;6349117;28;20173;-65
2021/06/20 06:55:49;;;;;;;1.90;1.30;;;;;;;23.39;60.35;99849.03;6324147;28;20048;-65
2021/06/20 06:58:50;;;;;;;3.77;1.20;;;;;;;23.44;57.81;99849.31;6322657;28;20048;-67
2021/06/20 07:01:51;;;;;;;3.07;1.47;;;;;;;23.55;59.87;99854.19;6314719;28;20067;-64
2021/06/20 07:04:52;;;;;;;3.60;1.37;;;;;;;23.65;59.74;99861.91;6348814;28;20070;-65
2021/06/20 07:07:54;;;;;;;2.73;1.17;;;;;;;23.90;56.11;99849.97;6348707;28;20466;-64
2021/06/20 07:10:54;;;;;;;3.58;1.20;;;;;;;23.92;56.40;99858.59;6347249;28;20422;-61
2021/06/20 07:13:55;;;;;;;2.20;1.10;;;;;;;23.90;54.81;99849.16;6346939;28;20035;-61
2021/06/20 07:16:56;;;;;;;5.27;1.10;;;;;;;23.88;54.29;99845.84;6338099;28;20049;-61
2021/06/20 07:19:57;;;;;;;1.97;1.30;;;;;;;24.00;58.79;99836.38;6323008;28;20071;-64
2021/06/20 07:22:58;;;;;;;2.33;0.98;;;;;;;24.17;55.69;99844.97;6321780;28;20280;-64
2021/06/20 07:25:59;;;;;;;4.32;1.25;;;;;;;24.21;57.13;99838.25;6321759;28;20501;-64
2021/06/20 07:29:00;;;;;;;1.63;1.15;;;;;;;24.24;55.21;99840.56;6322941;28;20052;-64
2021/06/20 07:32:01;;;;;;;2.42;1.30;;;;;;;24.31;55.36;99848.63;6304962;28;20032;-64
2021/06/20 07:35:03;;;;;;;5.15;1.50;;;;;;;24.34;56.86;99846.41;6322797;28;20043;-63
2021/06/20 07:38:04;;;;;;;;;;;;;;;24.36;56.43;99845.38;6322196;28;20044;-64
2021/06/20 07:41:04;;;;;;;1.73;1.23;;;;;;;24.41;58.16;99849.16;6321311;28;20275;-65
2021/06/20 07:44:05;;;;;;;2.00;1.10;;;;;;;24.52;57.29;99854.03;6321237;28;20054;-65
2021/06/20 07:47:06;;;;;;;3.57;1.00;;;;;;;24.74;58.35;99846.03;6322469;28;20043;-65
2021/06/20 07:50:10;;;;;;;1.48;1.13;;;;;;;24.95;56.24;99847.84;6322265;28;20043;-65
2021/06/20 07:53:11;;;;;;;3.15;1.20;;;;;;;25.01;56.14;99839.06;6322293;28;20478;-65
2021/06/20 07:56:11;;;;;;;0.80;0.80;;;;;;;25.09;53.45;99846.94;6321145;28;20102;-65
2021/06/20 07:59:12;;;;;;;1.33;0.90;;;;;;;25.17;54.97;99839.81;6344695;28;20276;-65
2021/06/20 08:02:14;;;;;;;1.47;0.77;;;;;;;25.32;52.82;99840.56;6346676;28;20092;-66
2021/06/20 08:05:16;;;;;;;2.88;1.38;;;;;;;25.21;54.71;99847.28;6347271;28;20043;-66
2021/06/20 08:08:18;;;;;;;0.80;0.70;;;;;;;25.22;54.45;99843.56;6347188;28;20051;-66
2021/06/20 08:11:19;;;;;;;5.75;0.80;;;;;;;25.19;54.05;99845.78;6345897;28;20108;-66
2021/06/20 08:14:20;;;;;;;1.23;0.80;;;;;;;25.14;53.58;99849.03;6328797;28;20474;-66
2021/06/20 08:17:21;;;;;;;1.37;0.80;;;;;;;25.10;55.10;99843.28;6328919;28;20777;-65
2021/06/20 08:20:22;;;;;;;1.75;0.93;;;;;;;25.41;53.43;99844.75;6346917;28;20111;-68
2021/06/20 08:23:23;;;;;;;3.50;0.75;;;;;;;25.62;52.41;99841.19;6346857;28;20127;-68
2021/06/20 08:26:24;;;;;;;6.10;0.80;;;;;;;25.74;51.23;99841.47;6346846;28;20042;-66
2021/06/20 08:29:24;;;;;;;2.10;0.90;;;;;;;25.69;50.13;99843.88;6345515;28;20486;-66
2021/06/20 08:32:25;;;;;;;0.70;0.60;;;;;;;25.59;51.53;99849.56;6345714;28;20048;-67
2021/06/20 08:35:26;;;;;;;7.53;0.77;;;;;;;25.85;50.18;99851.56;6345530;28;20118;-67
2021/06/20 08:38:27;;;;;;;0.60;0.60;;;;;;;26.00;50.50;99853.31;6345436;28;20040;-67
2021/06/20 08:41:31;;;;;;;0.70;0.68;;;;;;;25.92;50.01;99855.16;6345348;28;20451;-67
2021/06/20 08:44:32;;;;;;;1.30;0.80;;;;;;;26.05;51.49;99854.38;6346575;28;20043;-67
2021/06/20 08:47:34;;;;;;;1.23;0.70;;;;;;;25.88;49.99;99855.69;6346696;28;20487;-68
2021/06/20 08:50:35;;;;;;;1.20;0.70;;;;;;;25.68;50.03;99860.94;6346435;28;20375;-67
2021/06/20 08:53:36;;;;;;;2.88;0.52;;;;;;;25.31;48.87;99852.28;6345210;28;20048;-67
2021/06/20 08:56:37;;;;;;;2.85;0.88;;;;;;;25.45;51.41;99856.69;6345360;28;20119;-67
2021/06/20 08:59:38;;;;;;;5.00;0.77;;;;;;;25.62;50.56;99849.19;6346584;28;20046;-68
2021/06/20 09:02:39;;;;;;;1.70;0.67;;;;;;;25.84;50.07;99846.41;6324732;28;20066;-65
2021/06/20 09:05:40;;;;;;;2.28;0.75;;;;;;;26.12;47.17;99835.69;6321037;28;20040;-65
2021/06/20 09:08:56;;;;;;;0.82;0.63;;;;;;;26.22;48.64;99841.47;6303367;28;20036;-65
2021/06/20 09:12:11;;;;;;;1.00;0.60;;;;;;;26.39;48.86;99836.56;6320936;28;20082;-65
2021/06/20 09:15:14;;;;;;;4.50;0.93;;;;;;;26.40;46.52;99827.53;6324793;28;20518;-65
2021/06/20 09:18:15;;;;;;;3.20;0.80;;;;;;;26.41;47.66;99833.72;6324785;28;20147;-65
2021/06/20 09:21:16;;;;;;;4.22;1.00;;;;;;;26.43;48.01;99824.44;6307634;28;20113;-59
2021/06/20 09:24:20;;;;;;;2.37;0.80;;;;;;;26.56;46.05;99820.16;6324577;28;20122;-59
2021/06/20 09:27:20;;;;;;;1.63;0.63;;;;;;;26.53;46.62;99824.06;6325727;28;20337;-59
2021/06/20 09:30:23;;;;;;;1.20;0.90;;;;;;;26.68;48.64;99814.00;6324124;28;20056;-59
2021/06/20 09:33:29;;;;;;;2.22;0.70;;;;;;;26.88;46.86;99818.56;6324234;28;20032;-59
2021/06/20 09:36:30;;;;;;;1.05;0.60;;;;;;;26.83;47.62;99821.88;6324334;28;20032;-59
2021/06/20 09:39:31;;;;;;;3.08;0.68;;;;;;;26.63;50.98;99821.03;6325483;28;20036;-59
2021/06/20 09:42:39;;;;;;;2.70;0.85;;;;;;;26.71;48.38;99812.81;6324174;28;20044;-60
2021/06/20 09:45:43;;;;;;;4.10;0.80;;;;;;;26.80;48.91;99802.72;6324952;28;20040;-60
2021/06/20 09:48:45;;;;;;;2.58;1.00;;;;;;;26.88;45.68;99795.28;6324827;28;20044;-60
2021/06/20 09:51:53;;;;;;;1.95;0.65;;;;;;;27.08;43.13;99789.13;6340401;28;20044;-64
2021/06/20 09:54:56;;;;;;;0.60;0.60;;;;;;;26.94;45.88;99794.47;6323367;28;20452;-66
2021/06/20 09:58:01;;;;;;;5.70;0.80;;;;;;;26.86;46.10;99789.31;6324533;28;20044;-66
2021/06/20 10:01:11;;;;;;;2.78;0.90;;;;;;;26.78;46.49;99789.53;6323038;28;20069;-66
2021/06/20 10:04:12;;;;;;;1.10;0.98;;;;;;;26.62;47.82;99790.75;6324583;28;20044;-66
2021/06/20 10:07:13;;;;;;;0.90;0.90;;;;;;;26.54;48.41;99786.41;6323537;28;20111;-65
2021/06/20 10:10:16;;;;;;;179.13;12.20;;;;;;;26.77;44.88;99773.66;6323552;28;20509;-62
2021/06/20 10:13:17;;;;;;;1.02;0.75;;;;;;;26.91;46.32;99772.63;6323319;28;20036;-64
2021/06/20 10:16:38;;;;;;;7.70;1.67;;;;;;;27.00;51.73;99771.41;6323145;28;20055;-64
2021/06/20 10:19:42;;;;;;;1.65;0.77;;;;;;;26.83;50.21;99762.13;6324556;28;20070;-62
2021/06/20 10:22:46;;;;;;;17.13;2.03;;;;;;;26.92;50.30;99758.22;6324640;28;20068;-59
2021/06/20 10:25:47;;;;;;;3.22;1.13;;;;;;;27.04;48.18;99753.06;6323692;28;20040;-59
2021/06/20 10:28:51;;;;;;;0.80;0.80;;;;;;;27.06;45.67;99748.34;6323198;28;20063;-59
2021/06/20 10:31:53;;;;;;;17.33;1.83;;;;;;;27.11;41.11;99743.16;6322829;28;20040;-59
2021/06/20 10:35:00;;;;;;;3.40;0.95;;;;;;;27.19;43.23;99742.13;6322841;28;20105;-61
2021/06/20 10:38:02;;;;;;;59.55;3.50;;;;;;;27.23;43.23;99738.03;6324023;28;20040;-60
2021/06/20 10:41:05;;;;;;;2.40;1.20;;;;;;;27.36;45.13;99734.47;6322711;28;20403;-59
2021/06/20 10:44:06;;;;;;;1.70;1.60;;;;;;;27.59;44.51;99729.44;6339938;28;20059;-59
2021/06/20 10:47:06;;;;;;;0.63;0.63;;;;;;;27.75;44.57;99730.81;6323822;28;20064;-62
2021/06/20 10:50:13;;;;;;;2.28;0.70;;;;;;;27.86;43.12;99732.88;6322581;28;20126;-62
2021/06/20 10:53:15;;;;;;;5.03;1.08;;;;;;;28.09;40.91;99726.94;6323540;28;20040;-62
2021/06/20 10:56:24;;;;;;;1.08;0.95;;;;;;;28.28;42.38;99727.03;6324179;28;20040;-63
2021/06/20 10:59:25;;;;;;;1.85;1.00;;;;;;;28.35;42.82;99725.09;6323480;28;20048;-63
2021/06/20 11:02:34;;;;;;;1.67;0.60;;;;;;;28.47;42.03;99726.03;6322290;28;20050;-63
2021/06/20 11:05:49;;;;;;;1.73;0.88;;;;;;;28.53;41.98;99725.19;6323358;28;20036;-62
2021/06/20 11:08:53;;;;;;;3.72;0.85;;;;;;;28.55;41.54;99714.25;6323237;28;20044;-62
2021/06/20 11:12:02;;;;;;;2.80;1.00;;;;;;;28.64;42.82;99712.09;6321808;28;20032;-63
2021/06/20 11:15:04;;;;;;;1.20;0.93;;;;;;;28.63;38.86;99707.78;6323068;28;20048;-62
2021/06/20 11:18:07;;;;;;;1.25;0.82;;;;;;;28.80;40.26;99700.81;6323075;28;20066;-64
2021/06/20 11:21:08;;;;;;;1.13;0.80;;;;;;;28.93;43.95;99700.69;6321648;28;20556;-64
2021/06/20 11:24:15;;;;;;;1.38;0.82;;;;;;;29.18;42.44;99699.00;6322633;28;20040;-63
2021/06/20 11:27:18;;;;;;;1.27;0.70;;;;;;;29.34;39.78;99695.69;6321192;28;20487;-64
2021/06/20 11:30:20;;;;;;;1.10;0.80;;;;;;;29.69;39.79;99685.13;6322448;28;20048;-63
2021/06/20 11:33:26;;;;;;;3.67;0.80;;;;;;;29.91;38.57;99693.53;6322191;28;20127;-63
2021/06/20 11:36:28;;;;;;;1.98;1.00;;;;;;;30.00;38.29;99690.50;6319954;28;20048;-63
2021/06/20 11:39:35;;;;;;;1.65;0.60;;;;;;;30.12;37.33;99688.66;6322110;28;20095;-63
2021/06/20 11:42:41;;;;;;;1.85;0.70;;;;;;;30.38;38.37;99687.47;6347699;28;20047;-63
2021/06/20 11:45:42;;;;;;;1.35;0.90;;;;;;;29.67;37.27;99675.63;6347751;28;20139;-63
2021/06/20 11:49:06;;;;;;;2.00;0.80;;;;;;;29.31;39.89;99682.72;6329665;28;20474;-63
2021/06/20 11:52:07;;;;;;;3.83;0.60;;;;;;;28.87;39.10;99687.34;6347360;28;20070;-62
2021/06/20 11:55:22;;;;;;;3.72;1.20;;;;;;;28.90;40.15;99681.50;6346283;28;20409;-63
2021/06/20 11:58:30;;;;;;;0.70;0.70;;;;;;;29.76;38.01;99687.75;6293740;27;20834;-66
2021/06/20 12:01:45;;;;;;;2.05;0.90;;;;;;;30.60;36.60;99679.63;6292628;28;20111;-64
2021/06/20 12:04:48;;;;;;;1.15;0.70;;;;;;;31.59;35.13;99677.94;6292553;28;20107;-65
2021/06/20 12:07:50;;;;;;;1.30;0.70;;;;;;;32.67;33.79;99684.13;6291433;28;20055;-64
2021/06/20 12:10:51;;;;;;;1.63;0.88;;;;;;;34.05;29.91;99673.31;6291335;28;20041;-64
2021/06/20 12:13:52;;;;;;;0.95;0.75;;;;;;;34.74;30.04;99669.81;6292487;28;20052;-65
2021/06/20 12:16:54;;;;;;;7.15;1.40;;;;;;;35.99;29.60;99670.75;6292406;28;20466;-65
2021/06/20 12:19:56;;;;;;;2.00;0.70;;;;;;;36.01;27.82;99663.16;6291267;28;20045;-65
2021/06/20 12:22:57;;;;;;;2.05;0.57;;;;;;;36.85;26.81;99660.09;6292131;28;20044;-65
2021/06/20 12:25:59;;;;;;;2.80;0.70;;;;;;;37.16;27.85;99663.50;6292357;28;20118;-65
2021/06/20 12:29:04;;;;;;;2.13;0.52;;;;;;;37.38;25.77;99660.41;6291660;28;20049;-64
2021/06/20 12:32:13;;;;;;;0.50;0.50;;;;;;;36.66;26.05;99649.81;6291992;28;20119;-64
2021/06/20 12:35:29;;;;;;;0.63;0.50;;;;;;;35.20;28.69;99652.97;6291918;28;20040;-65
2021/06/20 12:38:33;;;;;;;3.30;0.77;;;;;;;34.43;29.87;99656.03;6290703;28;20048;-66
2021/06/20 12:41:35;;;;;;;1.27;0.60;;;;;;;33.86;31.43;99641.22;6291757;28;20044;-65
2021/06/20 12:44:43;;;;;;;1.85;0.80;;;;;;;33.32;32.61;99639.31;6291711;28;20040;-63
2021/06/20 12:47:43;;;;;;;3.38;0.90;;;;;;;32.40;32.41;99634.56;6291682;28;20048;-63
2021/06/20 12:50:56;;;;;;;2.33;1.00;;;;;;;32.30;33.56;99624.41;6290365;28;20182;-63
2021/06/20 12:54:09;;;;;;;0.70;0.70;;;;;;;32.20;32.79;99626.97;6291466;28;20499;-64
2021/06/20 12:57:10;;;;;;;1.38;0.77;;;;;;;32.03;32.66;99621.59;6291121;28;20514;-61
2021/06/20 13:00:11;;;;;;;2.85;1.05;;;;;;;31.98;33.48;99616.06;6290030;28;20045;-62
2021/06/20 13:03:12;;;;;;;10.02;1.20;;;;;;;31.22;34.44;99608.25;6291542;28;20067;-65
2021/06/20 13:06:13;;;;;;;0.70;0.70;;;;;;;30.80;34.30;99609.25;6291119;28;20045;-65
2021/06/20 13:09:15;;;;;;;2.92;1.73;;;;;;;31.30;32.92;99608.66;6278213;28;20487;-65
2021/06/20 13:12:15;;;;;;;5.38;1.20;;;;;;;31.22;35.23;99609.06;6273401;28;20174;-64
2021/06/20 13:15:17;;;;;;;0.73;0.70;;;;;;;31.43;31.31;99607.56;6274615;28;20479;-65
2021/06/20 13:18:18;;;;;;;2.75;1.05;;;;;;;31.17;34.75;99603.53;6274618;28;20049;-65
2021/06/20 13:21:18;;;;;;;;;;;;;;;31.37;33.68;99588.84;6274773;28;20037;-64
2021/06/20 13:24:19;;;;;;;0.80;0.77;;;;;;;31.32;34.13;99581.50;6274409;28;19920;-63
2021/06/20 13:27:20;;;;;;;;;;;;;;;31.32;34.52;99578.78;6274618;28;20051;-64
2021/06/20 13:30:23;;;;;;;4.35;1.00;;;;;;;31.33;35.24;99583.09;6274396;28;19928;-64
2021/06/20 13:33:24;;;;;;;2.30;1.00;;;;;;;31.20;35.18;99589.63;6274129;28;20044;-65
2021/06/20 13:36:25;;;;;;;;;;;;;;;31.16;34.93;99582.25;6274515;28;20057;-65
2021/06/20 13:39:26;;;;;;;3.38;0.77;;;;;;;31.30;34.71;99580.91;6268475;28;20441;-65
2021/06/20 13:42:26;;;;;;;;;;;;;;;31.37;35.13;99586.16;6267335;28;20041;-65
2021/06/20 13:45:27;;;;;;;1.50;0.80;;;;;;;31.31;35.30;99577.13;6249083;28;20299;-65
2021/06/20 13:48:28;;;;;;;;;;;;;;;31.27;35.01;99579.50;6267560;28;20045;-63
2021/06/20 13:51:29;;;;;;;1.63;0.90;;;;;;;31.30;35.98;99578.22;6273265;28;19921;-62
2021/06/20 13:54:30;;;;;;;;;;;;;;;31.32;35.47;99576.09;6273408;28;20043;-62
2021/06/20 13:57:31;;;;;;;0.77;0.77;;;;;;;31.31;34.66;99579.84;6272831;28;20015;-63
2021/06/20 14:00:31;;;;;;;;;;;;;;;31.10;35.54;99574.06;6269794;28;20041;-63
2021/06/20 14:03:32;;;;;;;2.90;0.70;;;;;;;30.99;34.85;99572.25;6255601;28;20311;-63
2021/06/20 14:06:33;;;;;;;;;;;;;;;31.07;34.50;99577.25;6272662;28;20045;-63
2021/06/20 14:09:34;;;;;;;1.43;0.70;;;;;;;30.40;34.24;99574.19;6272512;28;19975;-63
2021/06/20 14:12:35;;;;;;;;;;;;;;;30.35;37.39;99566.81;6272469;28;20041;-63
2021/06/20 14:15:36;;;;;;;0.93;0.80;;;;;;;30.44;35.88;99567.28;6267455;28;19921;-63
2021/06/20 14:18:36;;;;;;;1.45;0.80;;;;;;;30.50;36.38;99571.72;6248329;28;20063;-63
2021/06/20 14:21:37;;;;;;;3.20;0.90;;;;;;;30.00;37.54;99570.31;6229673;28;20053;-62